ADDS METAR Data INFO
IDs: Format: Raw Decoded Include TAF

Data at: 1714 UTC 23 Oct 2017

KMHS 231656Z AUTO 00000KT 10SM FEW012 12/09 A3056 RMK AO2 SLP364 T01170094
KMHS 231607Z AUTO 00000KT 10SM BKN010 10/08 A3057 RMK AO2 CIG 007V012 T01000083
KMHS 231556Z AUTO 00000KT 10SM BKN008 BKN012 09/08 A3056 RMK AO2 SLP363 T00890078
KMHS 231532Z AUTO 00000KT 10SM BKN008 OVC012 07/07 A3055 RMK AO2 T00720067
KMHS 231518Z AUTO VRB03KT 10SM BKN010 08/07 A3055 RMK AO2 CIG 008V013 T00780067 $
KMHS 231456Z AUTO 00000KT 10SM CLR 08/07 A3054 RMK AO2 SLP355 T00780067 53010 $
KMHS 231418Z AUTO 00000KT 10SM SCT011 08/08 A3053 RMK AO2 T00830083 $
KMHS 231408Z AUTO 00000KT 10SM BKN011 09/08 A3052 RMK AO2 T00890083 $
KMHS 231356Z AUTO 00000KT 10SM SCT010 09/08 A3052 RMK AO2 SLP349 T00890083 $
KMHS 231256Z AUTO 00000KT 10SM OVC012 09/09 A3051 RMK AO2 SLP339 T00940089 $
KMHS 231156Z AUTO 00000KT 10SM OVC012 09/08 A3050 RMK AO2 SLPNO T00890083 10106 20072 55001 $
KMHS 231142Z AUTO 00000KT 10SM BKN013 08/08 A3050 RMK AO2 T00830078 $
KMHS 231056Z AUTO 00000KT 10SM CLR 08/07 A3049 RMK AO2 SLPNO T00780067 $
KMHS 230956Z AUTO 00000KT 10SM CLR 08/07 A3049 RMK AO2 SLPNO T00830072 $
KMHS 230856Z AUTO VRB03KT 10SM CLR 10/08 A3051 RMK AO2 SLPNO T01000083 51006 $
KMHS 230756Z AUTO 06004KT 10SM CLR 10/08 A3050 RMK AO2 SLPNO T01000078 $
KMHS 230656Z AUTO 00000KT 10SM CLR 08/07 A3049 RMK AO2 SLPNO T00780067 $
KMHS 230556Z AUTO 06003KT 10SM CLR 08/07 A3049 RMK AO2 SLPNO T00830072 51012 $
KMHS 230456Z AUTO 00000KT 10SM CLR 11/08 A3048 RMK AO2 SLP335 T01060078 $
KMHS 230356Z AUTO 04003KT 10SM CLR 12/08 A3047 RMK AO2 SLPNO T01170083 $
KMHS 230256Z AUTO 30006KT 10SM CLR 13/08 A3045 RMK AO2 SLP331 T01280078 52019 $
KMHS 230156Z AUTO 00000KT 10SM CLR 13/07 A3043 RMK AO2 SLP324 T01330072 $
KMHS 230056Z AUTO 00000KT 10SM CLR 16/08 A3040 RMK AO2 SLP311 T01560078 $
KMHS 222356Z AUTO 00000KT 10SM CLR A3038 RMK AO2 SLPNO 57006 $
KMHS 222256Z AUTO 00000KT 10SM CLR A3038 RMK AO2 SLPNO $
KMHS 222156Z AUTO VRB03KT 10SM CLR A3040 RMK AO2 SLPNO $
KMHS 222056Z AUTO 00000KT 10SM CLR A3040 RMK AO2 SLPNO 50000 $
KMHS 221956Z AUTO VRB03KT 10SM FEW060 A3041 RMK AO2 SLPNO $
KMHS 221856Z AUTO 00000KT 10SM FEW065 A3041 RMK AO2 SLPNO $
KMHS 221756Z AUTO VRB03KT 10SM CLR A3040 RMK AO2 SLPNO 51018 $
KMHS 221656Z AUTO 00000KT 10SM CLR 09/07 A3039 RMK AO2 SLP314 T00890072 $
KMHS 221636Z AUTO 00000KT 10SM FEW018 SCT055 A3038 RMK AO2 $
KMHS 221603Z AUTO 00000KT 10SM BKN018 07/06 A3039 RMK AO2 T00670061 $
KMHS 221556Z AUTO 00000KT 9SM SCT018 A3039 RMK AO2 SLPNO $
KMHS 221456Z AUTO 00000KT 8SM FEW011 03/03 A3035 RMK AO2 SLP304 T00280028 50008 $
KMHS 221356Z AUTO 00000KT 10SM CLR 02/02 A3035 RMK AO2 SLP305 T00220017 $
KMHS 221256Z AUTO 00000KT 10SM CLR 03/02 A3034 RMK AO2 SLP298 T00280022 $
KMHS 221156Z AUTO 00000KT 10SM CLR 02/02 A3032 RMK AO2 SLPNO T00220017 10044 20017 55004 $
KMHS 221056Z AUTO 00000KT 10SM CLR 02/02 A3031 RMK AO2 SLPNO T00220017 $
KMHS 220956Z AUTO 00000KT 10SM CLR 03/02 A3033 RMK AO2 SLPNO T00280017 $
KMHS 220914Z AUTO 00000KT 10SM FEW009 03/02 A3033 RMK AO2 T00280022 $
KMHS 220856Z AUTO 06003KT 10SM CLR 03/02 A3033 RMK AO2 SLPNO T00330022 51008 $
KMHS 220839Z AUTO 00000KT 10SM SCT009 03/02 A3033 RMK AO2 T00330022 $
KMHS 220808Z AUTO 00000KT 8SM OVC009 04/03 A3032 RMK AO2 T00390033 $
KMHS 220756Z AUTO 00000KT 9SM OVC010 04/03 A3032 RMK AO2 SLP289 T00440033 $
KMHS 220656Z AUTO 00000KT 5SM BR OVC011 04/03 A3032 RMK AO2 SLP292 T00390033 $
KMHS 220556Z AUTO 00000KT 10SM BKN011 03/02 A3030 RMK AO2 SLP287 T00330022 10089 20028 53007 $
KMHS 220528Z AUTO 00000KT 8SM BKN012 03/02 A3030 RMK AO2 T00330022 $